Portada
METAR-TAF:

METAR-TAF

Aeroports :

Khajuraho, Índia

latitud: 24-49-02N, longitud: 79-55-07E, altitud: 222 m

Observació

L'informe es va fer fa 7 hores i 24 minuts, a les 12:00 UTC
Vent 2 kt del Est
Temperatura 30°C
Humitat 55%
Pressió 1012 hPa
Visibilitat: 6000 m

METAR: VEKO 161200Z 09002KT 6000 NSC 30/20 Q1012

Hora: 00:54 (19:24 UTC)

Pronòstic

L'informe es va fer fa 5 hores i 24 minuts, a les 14:00 UTC
Pronòstic vàlid del 16 a les 15 UTC al 16 a les 24 UTC
Vent 5 kt del Nord-Est
Visibilitat: 5000 m
Escasses núvols a una alçada de 2500 ft
calitja

TAF: VEKO 161400Z 1615/1624 05005KT 5000 HZ FEW025

Observacions i pronòstics meteorològics de més de 4000 aeroports (METAR i TAF).

Les estacions disponibles són els punts grocs i vermells al mapa.

Posi el ratolí al punt desitjat per veure el nom de l'estació.

Feu clic per veure les observacions i els pronòstics meteorològics.

Per canviar el mapa: feu clic els botons verds amb una creu de color negre per apropar; al botó verd amb un guió per allunyar la imatge; o en les fletxes verdes per a mapes adjacents.


METAR-TAF: